• Join FlightAware (Why Join?)
  • Login
  • US Flag 
05:17AM EDT


 

Airport Tracker/Info


-or-


 

Live Flight TrackerFlight Track Log ✈ JBU667 ✈ 23-Jul-2013 ✈ KMCO - TJPS / PSE

Flight Track Log - Related Links

Times and Time Zones

All times are in EDT time to prevent confusion due to time zone crossing. See the JBU667 flight status page for this flight to view local times or setup timezone preferences in your user account.

Time Position Orientation Groundspeed Altitude Reporting Facility
EDT Latitude Longitude Course Direction KTS MPH feet Rate Location/Type
11:03PM 28.4167 -81.3167 146° Southeast 159 183 1,000  Level Orlando TRACON
11:04PM 28.3667 -81.2833 150° Southeast 232 267 2,200 1,740 Climbing Orlando TRACON
11:05PM 28.3167 -81.2167 130° Southeast 285 328 4,600 2,640 Climbing Orlando TRACON
11:06PM 28.2341 -80.9863 148° Southeast  Level Estimated
11:07PM 28.1688 -80.8790 146° Southeast  Level Estimated
11:07PM 28.2675 -81.0947 115° Southeast 287 330 9,200  Level Miami Center
11:08PM 28.1035 -80.7718 146° Southeast  Level Estimated
11:08PM 28.2472 -80.9950 103° East 306 352 10,900  Level Miami Center
11:09PM 28.1833 -80.8961 126° Southeast 340 391 13,100 1,800 Climbing Miami Center
11:10PM 28.1142 -80.8372 143° Southeast 354 407 14,600 1,920 Climbing Miami Center
11:11PM 28.0081 -80.7442 142° Southeast 398 458 17,100 1,800 Climbing Miami Center
11:12PM 27.9264 -80.6756 143° Southeast 405 466 18,300 1,560 Climbing Miami Center
11:13PM 27.8222 -80.5875 143° Southeast 420 483 20,200 1,680 Climbing Miami Center
11:14PM 27.7197 -80.5208 150° Southeast 425 489 21,700 1,380 Climbing Miami Center
11:15PM 27.6125 -80.4589 153° Southeast 425 489 23,000 840 Climbing Miami Center
11:16PM 27.5033 -80.4017 155° Southeast 425 489 23,400 600 Climbing Miami Center
11:17PM 27.3897 -80.3561 160° South 430 495 24,300 960 Climbing Miami Center
11:18PM 27.2717 -80.3128 162° South 436 502 25,400 1,080 Climbing Miami Center
11:19PM 27.1497 -80.2669 162° South 449 517 26,500 1,080 Climbing Miami Center
11:20PM 27.0275 -80.2192 161° South 455 524 27,600 960 Climbing Miami Center
11:21PM 26.9186 -80.1439 148° Southeast 454 522 28,400 780 Climbing Miami Center
11:22PM 26.8483 -80.0186 122° Southeast 454 522 29,200 960 Climbing Miami Center
11:23PM 26.7839 -79.9050 122° Southeast 481 554 30,400 1,200 Climbing Miami Center
11:24PM 26.7094 -79.7636 120° Southeast 481 554 31,600 1,200 Climbing Miami Center
11:25PM 26.6511 -79.6531 121° Southeast 474 545 32,800 1,200 Climbing Miami Center
11:26PM 26.5783 -79.5164 121° Southeast 474 545 34,100 960 Climbing Miami Center
11:27PM 26.5178 -79.4083 122° Southeast 469 540 34,800 840 Climbing Miami Center
11:28PM 26.4447 -79.2769 122° Southeast 464 534 35,800 780 Climbing Miami Center
11:29PM 26.3800 -79.1503 120° Southeast 459 528 36,400 600 Climbing Miami Center
11:30PM 26.3128 -79.0308 122° Southeast 459 528 37,000 300 Climbing Miami Center
11:31PM 26.2497 -78.9139 121° Southeast 459 528 37,000  Level Miami Center
11:32PM 26.1803 -78.7897 122° Southeast 459 528 37,000  Level Miami Center
11:33PM 26.1108 -78.6683 122° Southeast 464 534 37,000  Level Miami Center
11:34PM 26.0433 -78.5542 123° Southeast 457 526 37,100  Climbing Miami Center
11:35PM 25.9778 -78.4375 122° Southeast 457 526 37,000 -60 Descending Miami Center
11:36PM 25.9122 -78.3189 122° Southeast 457 526 37,000  Level Miami Center
11:37PM 25.8464 -78.1958 121° Southeast 457 526 37,000  Level Miami Center
11:38PM 25.7806 -78.0797 122° Southeast 457 526 37,000  Level Miami Center
11:39PM 25.7167 -77.9636 121° Southeast 457 526 37,000  Level Miami Center
11:40PM 25.6506 -77.8456 122° Southeast 457 526 37,000  Level Miami Center
11:41PM 25.5844 -77.7275 122° Southeast 457 526 37,000  Level Miami Center
11:42PM 25.5183 -77.6117 122° Southeast 457 526 37,000  Level Miami Center
11:43PM 25.4539 -77.4939 121° Southeast 457 526 37,000  Level Miami Center
11:44PM 25.3958 -77.3903 122° Southeast 451 519 37,000  Level Miami Center
11:45PM 25.3294 -77.2725 122° Southeast 451 519 37,000  Level Miami Center
11:46PM 25.2608 -77.1575 123° Southeast 451 519 37,000  Level Miami Center
11:47PM 25.1961 -77.0403 121° Southeast 451 519 37,000  Level Miami Center
11:48PM 25.1272 -76.9253 123° Southeast 451 519 37,000  Level Miami Center
11:49PM 25.0625 -76.8106 122° Southeast 446 513 37,000  Level Miami Center
11:50PM 24.9975 -76.7006 123° Southeast 441 507 37,000  Level Miami Center
11:51PM 24.9306 -76.5861 123° Southeast 436 502 37,000  Level Miami Center
11:52PM 24.8633 -76.4694 122° Southeast 441 507 37,000  Level Miami Center
11:53PM 24.7961 -76.3528 122° Southeast 441 507 37,000  Level Miami Center
11:54PM 24.7267 -76.2389 124° Southeast 441 507 37,000  Level Miami Center
11:55PM 24.6572 -76.1181 122° Southeast 429 494 37,000  Level Miami Center
11:56PM 24.5897 -76.0064 124° Southeast 434 499 37,000  Level Miami Center
11:57PM 24.5264 -75.8925 121° Southeast 434 499 37,000  Level Miami Center
11:58PM 24.4608 -75.7811 123° Southeast 434 499 37,000  Level Miami Center
11:59PM 24.3953 -75.6722 123° Southeast 434 499 37,000  Level Miami Center
12:00AM 24.3272 -75.5589 123° Southeast 434 499 37,000  Level Miami Center
12:01AM 24.2594 -75.4433 123° Southeast 439 505 37,000  Level Miami Center
12:02AM 24.1936 -75.3347 124° Southeast 434 499 37,000  Level Miami Center
12:03AM 24.1275 -75.2217 123° Southeast 434 499 37,000  Level Miami Center
12:04AM 24.0678 -75.1200 123° Southeast 434 499 37,000  Level Miami Center
12:05AM 23.9997 -75.0097 124° Southeast 434 499 37,000  Level Miami Center
12:06AM 23.9333 -74.8947 122° Southeast 434 499 37,000  Level Miami Center
12:07AM 23.8650 -74.7844 124° Southeast 434 499 37,000  Level Miami Center
12:08AM 23.7986 -74.6764 124° Southeast 434 499 37,000  Level Miami Center
12:09AM 23.7300 -74.5619 123° Southeast 439 505 37,000  Level Miami Center
12:10AM 23.6636 -74.4519 123° Southeast 433 498 37,000  Level Miami Center
12:11AM 23.5950 -74.3422 124° Southeast 433 498 37,000  Level Miami Center
12:12AM 23.5283 -74.2303 123° Southeast 433 498 37,000  Level Miami Center
12:13AM 23.4594 -74.1208 124° Southeast 433 498 37,000  Level Miami Center
12:14AM 23.3947 -74.0133 123° Southeast 434 499 37,000  Level Miami Center
12:15AM 23.3278 -73.9019 123° Southeast 434 499 37,000  Level Miami Center
12:16AM 23.2567 -73.7950 126° Southeast 434 499 37,000  Level Miami Center
12:17AM 23.1897 -73.6836 123° Southeast 434 499 37,000  Level Miami Center
12:18AM 23.1225 -73.5725 123° Southeast 434 499 37,000  Level Miami Center
12:19AM 23.0553 -73.4636 124° Southeast 434 499 37,000  Level Miami Center
12:20AM 22.9881 -73.3525 123° Southeast 434 499 37,000  Level Miami Center
12:21AM 22.9167 -73.2417 125° Southeast 439 505 37,000  Level Miami Center
12:22AM 22.8406 -73.1200 124° Southeast 439 505 37,000  Level Miami Center
12:23AM 22.7839 -73.0247 123° Southeast 434 499 37,000  Level Miami Center
12:24AM 22.7142 -72.9142 124° Southeast 434 499 37,000  Level Miami Center
12:25AM 22.6464 -72.8017 123° Southeast 434 499 37,000  Level Miami Center
12:26AM 22.5767 -72.6914 124° Southeast 434 499 37,000  Level Miami Center
12:27AM 22.5089 -72.5833 124° Southeast 439 505 37,000  Level Miami Center
12:28AM 22.4389 -72.4733 125° Southeast 439 505 37,000  Level Miami Center
12:29AM 22.3689 -72.3636 125° Southeast 439 505 37,000  Level Miami Center
12:30AM 22.2989 -72.2539 125° Southeast 439 505 37,000  Level Miami Center
12:31AM 22.2308 -72.1442 124° Southeast 434 499 37,000  Level Miami Center
12:32AM 22.1625 -72.0344 124° Southeast 439 505 37,000  Level Miami Center
12:33AM 22.0922 -71.9250 125° Southeast 439 505 37,000  Level Miami Center
12:34AM 22.0239 -71.8158 124° Southeast 439 505 37,000  Level Miami Center
12:35AM 21.9514 -71.7044 125° Southeast 439 505 37,000  Level Miami Center
12:36AM 21.8808 -71.5931 124° Southeast 439 505 37,000  Level Miami Center
12:37AM 21.8103 -71.4864 125° Southeast 444 511 37,000  Level Miami Center
12:38AM 21.7394 -71.3733 124° Southeast 444 511 37,000  Level Miami Center
12:39AM 21.6689 -71.2622 124° Southeast 444 511 37,000  Level Miami Center
12:40AM 21.6000 -71.1492 123° Southeast 450 518 37,000  Level Miami Center
12:41AM 21.5289 -71.0319 123° Southeast 457 526 37,000  Level Miami Center
12:42AM 21.4450 -70.9108 127° Southeast 463 533 37,000  Level Miami Center
12:43AM 21.3717 -70.8006 126° Southeast 458 527 37,000  Level Miami Center
12:44AM 21.2983 -70.6881 125° Southeast 458 527 37,000  Level Miami Center
12:45AM 21.2253 -70.5781 125° Southeast 458 527 37,000  Level Miami Center
12:46AM 21.1539 -70.4681 125° Southeast 458 527 37,000  Level Miami Center
12:47AM 21.0803 -70.3539 125° Southeast 463 533 37,000  Level Miami Center
12:48AM 21.0044 -70.2353 124° Southeast 468 539 37,100  Climbing Miami Center
12:49AM 20.9286 -70.1214 125° Southeast 473 544 37,000 -60 Descending Miami Center
12:50AM 20.8528 -70.0056 125° Southeast 478 550 37,000  Level Miami Center
12:51AM 20.7767 -69.8897 125° Southeast 478 550 37,000  Level Miami Center
12:52AM 20.6986 -69.7742 126° Southeast 478 550 37,000  Level Miami Center
12:53AM 20.6222 -69.6542 124° Southeast 478 550 37,000  Level Miami Center
12:54AM 20.5439 -69.5389 126° Southeast 478 550 37,000  Level Miami Center
12:55AM 20.4675 -69.4236 125° Southeast 478 550 37,000  Level Miami Center
12:56AM 20.3892 -69.3064 125° Southeast 478 550 37,000  Level Miami Center
12:57AM 20.3147 -69.1892 124° Southeast 478 550 37,000  Level Miami Center
12:58AM 20.2381 -69.0719 125° Southeast 478 550 37,000  Level Miami Center
12:59AM 20.1572 -68.9575 127° Southeast 478 550 37,000  Level Miami Center
01:00AM 20.0828 -68.8406 124° Southeast 478 550 37,000  Level Miami Center
01:01AM 20.0061 -68.7261 125° Southeast 478 550 37,000  Level Miami Center
01:02AM 19.9133 -68.6261 135° Southeast 478 550 37,000  Level Miami Center
01:03AM 19.8231 -68.5303 135° Southeast 468 539 37,000  Level Miami Center
01:04AM 19.7244 -68.4372 138° Southeast 468 539 37,000  Level Miami Center
01:05AM 19.6333 -68.3500 138° Southeast 460 529 37,000  Level San Juan Center
01:06AM 19.5667 -68.2833 137° Southeast 480 552 37,000  Level San Juan Center
01:07AM 19.4500 -68.1667 137° Southeast 450 518 37,000  Level San Juan Center
01:08AM 19.3667 -68.0667 131° Southeast 470 541 37,000  Level San Juan Center
01:09AM 19.2667 -67.9833 142° Southeast 460 529 37,000 -840 Level San Juan Center
01:10AM 19.1667 -67.8833 137° Southeast 470 541 35,400 -2,520 Descending San Juan Center
01:11AM 19.0833 -67.8000 137° Southeast 460 529 32,000 -3,000 Descending San Juan Center
01:12AM 18.9833 -67.7000 137° Southeast 480 552 29,500 -2,400 Descending San Juan Center
01:13AM 18.8833 -67.6000 137° Southeast 480 552 27,200 -2,280 Descending San Juan Center
01:14AM 18.7833 -67.5000 137° Southeast 460 529 25,000 -2,160 Descending San Juan Center
01:15AM 18.7000 -67.4167 137° Southeast 460 529 22,900 -2,220 Descending San Juan Center
01:16AM 18.6000 -67.3167 137° Southeast 440 506 20,600 -2,100 Descending San Juan Center
01:17AM 18.5000 -67.2333 142° Southeast 420 483 18,700 -1,980 Descending San Juan Center
01:18AM 18.4167 -67.1667 143° Southeast 390 449 16,700 -1,980 Descending San Juan Center
01:19AM 18.3500 -67.0833 130° Southeast 370 426 14,800 -2,160 Descending San Juan Center
01:20AM 18.2833 -67.0167 136° Southeast 350 403 12,400 -2,040 Descending San Juan Center
01:21AM 18.2167 -66.9500 136° Southeast 350 403 10,700 -1,260 Descending San Juan Center
01:22AM 18.1500 -66.8833 136° Southeast 310 357 9,900 -1,140 Descending San Juan Center
01:23AM 18.0833 -66.8333 145° Southeast 290 334 8,500 -1,440 Descending San Juan Center
01:24AM 18.0333 -66.7667 128° Southeast 280 322 7,000 -960 Descending San Juan Center
01:25AM 17.9667 -66.7167 144° Southeast 250 288 6,600 -600 Descending San Juan Center
01:26AM 17.9167 -66.6833 148° Southeast 230 265 5,800 -420 Descending San Juan Center
01:27AM 17.8833 -66.6333 125° Southeast 200 230 5,800 -480 Level San Juan Center
01:28AM 17.8667 -66.5833 109° East 170 196 4,900 -900 Descending San Juan Center
01:31AM 18.0000 -66.5500 25° Northeast  Level FlightAware Approximate
01:38AM 18.0083 -66.5630 25° Northeast  Level Estimated
01:39AM 18.0083 -66.5630 25° Northeast  Level Estimated
01:40AM 18.0083 -66.5630 25° Northeast  Level Estimated
01:41AM 18.0083 -66.5630 25° Northeast  Level Estimated
01:42AM 18.0083 -66.5630 25° Northeast  Level Estimated
01:43AM 18.0083 -66.5630 25° Northeast  Level Estimated